sensor_id;sensor_type;location;lat;lon;timestamp;temperature;humidity
983;DHT22;480;48.124;11.578;2022-12-11T00:00:04;0.10;99.90
983;DHT22;480;48.124;11.578;2022-12-11T00:02:34;0.10;99.90
983;DHT22;480;48.124;11.578;2022-12-11T00:05:01;0.10;99.90
983;DHT22;480;48.124;11.578;2022-12-11T00:07:28;-0.10;99.90
983;DHT22;480;48.124;11.578;2022-12-11T00:09:55;-0.20;99.90
983;DHT22;480;48.124;11.578;2022-12-11T00:12:23;-0.20;99.90
983;DHT22;480;48.124;11.578;2022-12-11T00:14:50;-0.20;99.90
983;DHT22;480;48.124;11.578;2022-12-11T00:17:17;-0.10;99.90
983;DHT22;480;48.124;11.578;2022-12-11T00:19:46;-0.10;99.90
983;DHT22;480;48.124;11.578;2022-12-11T00:22:13;-0.10;99.90
983;DHT22;480;48.124;11.578;2022-12-11T00:24:40;-0.10;99.90
983;DHT22;480;48.124;11.578;2022-12-11T00:27:07;-0.30;99.90
983;DHT22;480;48.124;11.578;2022-12-11T00:29:34;-0.20;99.90
983;DHT22;480;48.124;11.578;2022-12-11T00:32:01;-0.30;99.90
983;DHT22;480;48.124;11.578;2022-12-11T00:34:28;-0.20;99.90
983;DHT22;480;48.124;11.578;2022-12-11T00:36:57;-0.20;99.90
983;DHT22;480;48.124;11.578;2022-12-11T00:39:24;-0.20;99.90
983;DHT22;480;48.124;11.578;2022-12-11T00:41:51;-0.20;99.90
983;DHT22;480;48.124;11.578;2022-12-11T00:44:19;-0.30;99.90
983;DHT22;480;48.124;11.578;2022-12-11T00:46:46;-0.10;99.90
983;DHT22;480;48.124;11.578;2022-12-11T00:49:13;-0.20;99.90
983;DHT22;480;48.124;11.578;2022-12-11T00:51:40;-0.10;99.90
983;DHT22;480;48.124;11.578;2022-12-11T00:54:09;0.00;99.90
983;DHT22;480;48.124;11.578;2022-12-11T00:56:36;0.00;99.90
983;DHT22;480;48.124;11.578;2022-12-11T00:59:03;-0.20;99.90
983;DHT22;480;48.124;11.578;2022-12-11T01:01:30;-0.10;99.90
983;DHT22;480;48.124;11.578;2022-12-11T01:03:58;-0.10;99.90
983;DHT22;480;48.124;11.578;2022-12-11T01:06:25;-0.10;99.90
983;DHT22;480;48.124;11.578;2022-12-11T01:08:53;-0.20;99.90
983;DHT22;480;48.124;11.578;2022-12-11T01:11:36;-0.20;99.90
983;DHT22;480;48.124;11.578;2022-12-11T01:14:03;-0.30;99.90
983;DHT22;480;48.124;11.578;2022-12-11T01:16:30;-0.30;99.90
983;DHT22;480;48.124;11.578;2022-12-11T01:18:58;-0.20;99.90
983;DHT22;480;48.124;11.578;2022-12-11T01:21:25;-0.30;99.90
983;DHT22;480;48.124;11.578;2022-12-11T01:23:52;-0.20;99.90
983;DHT22;480;48.124;11.578;2022-12-11T01:26:19;-0.10;99.90
983;DHT22;480;48.124;11.578;2022-12-11T01:28:50;-0.10;99.90
983;DHT22;480;48.124;11.578;2022-12-11T01:31:18;-0.20;99.90
983;DHT22;480;48.124;11.578;2022-12-11T01:33:46;-0.10;99.90
983;DHT22;480;48.124;11.578;2022-12-11T01:36:15;0.00;99.90
983;DHT22;480;48.124;11.578;2022-12-11T01:38:44;-0.10;99.90
983;DHT22;480;48.124;11.578;2022-12-11T01:41:11;0.00;99.90
983;DHT22;480;48.124;11.578;2022-12-11T01:43:59;-0.10;99.90
983;DHT22;480;48.124;11.578;2022-12-11T01:46:27;0.10;99.90
983;DHT22;480;48.124;11.578;2022-12-11T01:48:55;0.10;99.90
983;DHT22;480;48.124;11.578;2022-12-11T01:51:23;0.00;99.90
983;DHT22;480;48.124;11.578;2022-12-11T01:53:53;0.10;99.90
983;DHT22;480;48.124;11.578;2022-12-11T01:56:23;0.00;99.90
983;DHT22;480;48.124;11.578;2022-12-11T01:58:53;0.00;99.90
983;DHT22;480;48.124;11.578;2022-12-11T02:01:26;-0.10;99.90
983;DHT22;480;48.124;11.578;2022-12-11T02:03:55;-0.10;99.90
983;DHT22;480;48.124;11.578;2022-12-11T02:06:32;0.00;99.90
983;DHT22;480;48.124;11.578;2022-12-11T02:09:00;0.00;99.90
983;DHT22;480;48.124;11.578;2022-12-11T02:11:33;0.10;99.90
983;DHT22;480;48.124;11.578;2022-12-11T02:14:05;0.10;99.90
983;DHT22;480;48.124;11.578;2022-12-11T02:16:42;0.00;99.90
983;DHT22;480;48.124;11.578;2022-12-11T02:19:21;0.00;99.90
983;DHT22;480;48.124;11.578;2022-12-11T02:21:52;-0.10;99.90
983;DHT22;480;48.124;11.578;2022-12-11T02:24:31;0.00;99.90
983;DHT22;480;48.124;11.578;2022-12-11T02:27:16;-0.10;99.90
983;DHT22;480;48.124;11.578;2022-12-11T02:29:51;0.00;99.90
983;DHT22;480;48.124;11.578;2022-12-11T02:32:22;-0.10;99.90
983;DHT22;480;48.124;11.578;2022-12-11T02:34:54;0.00;99.90
983;DHT22;480;48.124;11.578;2022-12-11T02:37:26;0.10;99.90
983;DHT22;480;48.124;11.578;2022-12-11T02:39:56;0.10;99.90
983;DHT22;480;48.124;11.578;2022-12-11T02:42:27;0.30;99.90
983;DHT22;480;48.124;11.578;2022-12-11T02:44:59;0.20;99.90
983;DHT22;480;48.124;11.578;2022-12-11T02:47:28;0.20;99.90
983;DHT22;480;48.124;11.578;2022-12-11T02:49:58;0.10;99.90
983;DHT22;480;48.124;11.578;2022-12-11T02:52:27;-0.10;99.90
983;DHT22;480;48.124;11.578;2022-12-11T02:54:57;-0.10;99.90
983;DHT22;480;48.124;11.578;2022-12-11T02:57:29;-0.20;99.90
983;DHT22;480;48.124;11.578;2022-12-11T02:59:58;-0.20;99.90
983;DHT22;480;48.124;11.578;2022-12-11T03:02:26;-0.20;99.90
983;DHT22;480;48.124;11.578;2022-12-11T03:04:53;-0.30;99.90
983;DHT22;480;48.124;11.578;2022-12-11T03:07:26;-0.30;99.90
983;DHT22;480;48.124;11.578;2022-12-11T03:09:53;-0.30;99.90
983;DHT22;480;48.124;11.578;2022-12-11T03:12:22;-0.20;99.90
983;DHT22;480;48.124;11.578;2022-12-11T03:14:51;-0.30;99.90
983;DHT22;480;48.124;11.578;2022-12-11T03:17:21;-0.30;99.90
983;DHT22;480;48.124;11.578;2022-12-11T03:19:54;-0.30;99.90
983;DHT22;480;48.124;11.578;2022-12-11T03:22:30;-0.20;99.90
983;DHT22;480;48.124;11.578;2022-12-11T03:25:03;-0.10;99.90
983;DHT22;480;48.124;11.578;2022-12-11T03:27:35;-0.20;99.90
983;DHT22;480;48.124;11.578;2022-12-11T03:30:05;-0.10;99.90
983;DHT22;480;48.124;11.578;2022-12-11T03:32:38;-0.10;99.90
983;DHT22;480;48.124;11.578;2022-12-11T03:35:12;-0.20;99.90
983;DHT22;480;48.124;11.578;2022-12-11T03:37:40;-0.10;99.90
983;DHT22;480;48.124;11.578;2022-12-11T03:40:12;-0.10;99.90
983;DHT22;480;48.124;11.578;2022-12-11T03:42:41;-0.10;99.90
983;DHT22;480;48.124;11.578;2022-12-11T03:45:11;-0.10;99.90
983;DHT22;480;48.124;11.578;2022-12-11T03:47:41;-0.10;99.90
983;DHT22;480;48.124;11.578;2022-12-11T03:50:11;-0.10;99.90
983;DHT22;480;48.124;11.578;2022-12-11T03:52:41;0.00;99.90
983;DHT22;480;48.124;11.578;2022-12-11T03:55:10;0.00;99.90
983;DHT22;480;48.124;11.578;2022-12-11T03:57:38;0.00;99.90
983;DHT22;480;48.124;11.578;2022-12-11T04:00:06;-0.20;99.90
983;DHT22;480;48.124;11.578;2022-12-11T04:02:34;-0.10;99.90
983;DHT22;480;48.124;11.578;2022-12-11T04:05:02;-0.10;99.90
983;DHT22;480;48.124;11.578;2022-12-11T04:07:29;-0.10;99.90
983;DHT22;480;48.124;11.578;2022-12-11T04:09:56;-0.10;99.90
983;DHT22;480;48.124;11.578;2022-12-11T04:12:23;0.00;99.90
983;DHT22;480;48.124;11.578;2022-12-11T04:14:50;-0.10;99.90
983;DHT22;480;48.124;11.578;2022-12-11T04:17:29;0.00;99.90
983;DHT22;480;48.124;11.578;2022-12-11T04:20:15;0.00;99.90
983;DHT22;480;48.124;11.578;2022-12-11T04:23:03;-0.10;99.90
983;DHT22;480;48.124;11.578;2022-12-11T04:25:47;-0.20;99.90
983;DHT22;480;48.124;11.578;2022-12-11T04:28:14;-0.10;99.90
983;DHT22;480;48.124;11.578;2022-12-11T04:30:47;0.10;99.90
983;DHT22;480;48.124;11.578;2022-12-11T04:33:15;0.00;99.90
983;DHT22;480;48.124;11.578;2022-12-11T04:35:43;-0.20;99.90
983;DHT22;480;48.124;11.578;2022-12-11T04:38:11;-0.10;99.90
983;DHT22;480;48.124;11.578;2022-12-11T04:40:38;-0.20;99.90
983;DHT22;480;48.124;11.578;2022-12-11T04:43:05;-0.20;99.90
983;DHT22;480;48.124;11.578;2022-12-11T04:45:32;-0.10;99.90
983;DHT22;480;48.124;11.578;2022-12-11T04:47:59;-0.10;99.90
983;DHT22;480;48.124;11.578;2022-12-11T04:50:26;0.10;99.90
983;DHT22;480;48.124;11.578;2022-12-11T04:52:55;0.00;99.90
983;DHT22;480;48.124;11.578;2022-12-11T04:55:22;0.00;99.90
983;DHT22;480;48.124;11.578;2022-12-11T04:57:49;0.20;99.90
983;DHT22;480;48.124;11.578;2022-12-11T05:00:17;0.10;99.90
983;DHT22;480;48.124;11.578;2022-12-11T05:02:44;0.10;99.90
983;DHT22;480;48.124;11.578;2022-12-11T05:05:11;-0.10;99.90
983;DHT22;480;48.124;11.578;2022-12-11T05:07:39;-0.10;99.90
983;DHT22;480;48.124;11.578;2022-12-11T05:10:08;-0.20;99.90
983;DHT22;480;48.124;11.578;2022-12-11T05:12:36;-0.20;99.90
983;DHT22;480;48.124;11.578;2022-12-11T05:15:03;-0.10;99.90
983;DHT22;480;48.124;11.578;2022-12-11T05:17:30;0.10;99.90
983;DHT22;480;48.124;11.578;2022-12-11T05:19:57;-0.10;99.90
983;DHT22;480;48.124;11.578;2022-12-11T05:22:24;0.00;99.90
983;DHT22;480;48.124;11.578;2022-12-11T05:24:51;-0.10;99.90
983;DHT22;480;48.124;11.578;2022-12-11T05:27:20;-0.20;99.90
983;DHT22;480;48.124;11.578;2022-12-11T05:29:47;-0.20;99.90
983;DHT22;480;48.124;11.578;2022-12-11T05:32:14;-0.30;99.90
983;DHT22;480;48.124;11.578;2022-12-11T05:34:41;-0.30;99.90
983;DHT22;480;48.124;11.578;2022-12-11T05:37:08;-0.30;99.90
983;DHT22;480;48.124;11.578;2022-12-11T05:39:36;-0.30;99.90
983;DHT22;480;48.124;11.578;2022-12-11T05:42:04;-0.30;99.90
983;DHT22;480;48.124;11.578;2022-12-11T05:44:32;-0.40;99.90
983;DHT22;480;48.124;11.578;2022-12-11T05:46:59;-0.30;99.90
983;DHT22;480;48.124;11.578;2022-12-11T05:49:26;-0.30;99.90
983;DHT22;480;48.124;11.578;2022-12-11T05:51:53;-0.10;99.90
983;DHT22;480;48.124;11.578;2022-12-11T05:54:20;0.00;99.90
983;DHT22;480;48.124;11.578;2022-12-11T05:56:49;0.10;99.90
983;DHT22;480;48.124;11.578;2022-12-11T05:59:16;0.10;99.90
983;DHT22;480;48.124;11.578;2022-12-11T06:01:45;0.30;99.90
983;DHT22;480;48.124;11.578;2022-12-11T06:04:12;0.30;99.90
983;DHT22;480;48.124;11.578;2022-12-11T06:06:39;0.40;99.90
983;DHT22;480;48.124;11.578;2022-12-11T06:09:12;0.40;99.90
983;DHT22;480;48.124;11.578;2022-12-11T06:11:40;0.40;99.90
983;DHT22;480;48.124;11.578;2022-12-11T06:14:09;0.30;99.90
983;DHT22;480;48.124;11.578;2022-12-11T06:16:36;0.30;99.90
983;DHT22;480;48.124;11.578;2022-12-11T06:19:05;0.20;99.90
983;DHT22;480;48.124;11.578;2022-12-11T06:21:32;0.20;99.90
983;DHT22;480;48.124;11.578;2022-12-11T06:24:01;0.30;99.90
983;DHT22;480;48.124;11.578;2022-12-11T06:26:28;0.40;99.90
983;DHT22;480;48.124;11.578;2022-12-11T06:28:56;0.30;99.90
983;DHT22;480;48.124;11.578;2022-12-11T06:31:24;0.20;99.90
983;DHT22;480;48.124;11.578;2022-12-11T06:33:51;0.10;99.90
983;DHT22;480;48.124;11.578;2022-12-11T06:36:22;0.20;99.90
983;DHT22;480;48.124;11.578;2022-12-11T06:38:50;0.40;99.90
983;DHT22;480;48.124;11.578;2022-12-11T06:41:17;0.20;99.90
983;DHT22;480;48.124;11.578;2022-12-11T06:43:44;0.40;99.90
983;DHT22;480;48.124;11.578;2022-12-11T06:46:12;0.40;99.90
983;DHT22;480;48.124;11.578;2022-12-11T06:48:40;0.40;99.90
983;DHT22;480;48.124;11.578;2022-12-11T06:51:09;0.50;99.90
983;DHT22;480;48.124;11.578;2022-12-11T06:53:38;0.50;99.90
983;DHT22;480;48.124;11.578;2022-12-11T06:56:07;0.40;99.90
983;DHT22;480;48.124;11.578;2022-12-11T06:58:36;0.40;99.90
983;DHT22;480;48.124;11.578;2022-12-11T07:01:03;0.30;99.90
983;DHT22;480;48.124;11.578;2022-12-11T07:03:31;0.20;99.90
983;DHT22;480;48.124;11.578;2022-12-11T07:05:59;0.10;99.90
983;DHT22;480;48.124;11.578;2022-12-11T07:08:27;0.30;99.90
983;DHT22;480;48.124;11.578;2022-12-11T07:11:02;0.30;99.90
983;DHT22;480;48.124;11.578;2022-12-11T07:13:29;0.20;99.90
983;DHT22;480;48.124;11.578;2022-12-11T07:15:57;0.10;99.90
983;DHT22;480;48.124;11.578;2022-12-11T07:18:24;0.10;99.90
983;DHT22;480;48.124;11.578;2022-12-11T07:20:51;0.00;99.90
983;DHT22;480;48.124;11.578;2022-12-11T07:23:19;0.00;99.90
983;DHT22;480;48.124;11.578;2022-12-11T07:25:46;0.00;99.90
983;DHT22;480;48.124;11.578;2022-12-11T07:28:14;0.00;99.90
983;DHT22;480;48.124;11.578;2022-12-11T07:30:41;0.00;99.90
983;DHT22;480;48.124;11.578;2022-12-11T07:33:08;0.10;99.90
983;DHT22;480;48.124;11.578;2022-12-11T07:35:35;0.10;99.90
983;DHT22;480;48.124;11.578;2022-12-11T07:38:03;0.00;99.90
983;DHT22;480;48.124;11.578;2022-12-11T07:40:30;0.00;99.90
983;DHT22;480;48.124;11.578;2022-12-11T07:42:57;0.10;99.90
983;DHT22;480;48.124;11.578;2022-12-11T07:45:25;0.10;99.90
983;DHT22;480;48.124;11.578;2022-12-11T07:47:52;0.20;99.90
983;DHT22;480;48.124;11.578;2022-12-11T07:50:19;0.20;99.90
983;DHT22;480;48.124;11.578;2022-12-11T07:52:46;0.10;99.90
983;DHT22;480;48.124;11.578;2022-12-11T07:55:13;-0.10;99.90
983;DHT22;480;48.124;11.578;2022-12-11T07:57:40;-0.10;99.90
983;DHT22;480;48.124;11.578;2022-12-11T08:00:08;-0.10;99.90
983;DHT22;480;48.124;11.578;2022-12-11T08:02:37;-0.10;99.90
983;DHT22;480;48.124;11.578;2022-12-11T08:05:05;0.00;99.90
983;DHT22;480;48.124;11.578;2022-12-11T08:07:33;0.00;99.90
983;DHT22;480;48.124;11.578;2022-12-11T08:10:01;0.10;99.90
983;DHT22;480;48.124;11.578;2022-12-11T08:12:28;0.20;99.90
983;DHT22;480;48.124;11.578;2022-12-11T08:14:55;0.20;99.90
983;DHT22;480;48.124;11.578;2022-12-11T08:17:22;0.20;99.90
983;DHT22;480;48.124;11.578;2022-12-11T08:19:51;0.20;99.90
983;DHT22;480;48.124;11.578;2022-12-11T08:22:18;0.30;99.90
983;DHT22;480;48.124;11.578;2022-12-11T08:24:46;0.20;99.90
983;DHT22;480;48.124;11.578;2022-12-11T08:27:16;0.20;99.90
983;DHT22;480;48.124;11.578;2022-12-11T08:29:43;0.20;99.90
983;DHT22;480;48.124;11.578;2022-12-11T08:32:10;0.10;99.90
983;DHT22;480;48.124;11.578;2022-12-11T08:34:41;0.40;99.90
983;DHT22;480;48.124;11.578;2022-12-11T08:37:10;0.30;99.90
983;DHT22;480;48.124;11.578;2022-12-11T08:39:38;0.10;99.90
983;DHT22;480;48.124;11.578;2022-12-11T08:42:06;-0.10;99.90
983;DHT22;480;48.124;11.578;2022-12-11T08:44:33;0.00;99.90
983;DHT22;480;48.124;11.578;2022-12-11T08:47:00;0.20;99.90
983;DHT22;480;48.124;11.578;2022-12-11T08:49:26;0.00;99.90
983;DHT22;480;48.124;11.578;2022-12-11T08:51:54;0.00;99.90
983;DHT22;480;48.124;11.578;2022-12-11T08:54:22;0.00;99.90
983;DHT22;480;48.124;11.578;2022-12-11T08:56:49;0.00;99.90
983;DHT22;480;48.124;11.578;2022-12-11T08:59:16;0.00;99.90
983;DHT22;480;48.124;11.578;2022-12-11T09:01:44;0.00;99.90
983;DHT22;480;48.124;11.578;2022-12-11T09:04:11;0.10;99.90
983;DHT22;480;48.124;11.578;2022-12-11T09:06:38;0.00;99.90
983;DHT22;480;48.124;11.578;2022-12-11T09:09:05;-0.10;99.90
983;DHT22;480;48.124;11.578;2022-12-11T09:11:35;-0.20;99.90
983;DHT22;480;48.124;11.578;2022-12-11T09:14:03;-0.20;99.90
983;DHT22;480;48.124;11.578;2022-12-11T09:16:31;-0.30;99.90
983;DHT22;480;48.124;11.578;2022-12-11T09:18:59;-0.30;99.90
983;DHT22;480;48.124;11.578;2022-12-11T09:21:27;-0.40;99.90
983;DHT22;480;48.124;11.578;2022-12-11T09:23:57;-0.40;99.90
983;DHT22;480;48.124;11.578;2022-12-11T09:26:25;-0.40;99.90
983;DHT22;480;48.124;11.578;2022-12-11T09:28:53;-0.30;99.90
983;DHT22;480;48.124;11.578;2022-12-11T09:31:22;-0.30;99.90
983;DHT22;480;48.124;11.578;2022-12-11T09:33:50;-0.30;99.90
983;DHT22;480;48.124;11.578;2022-12-11T09:36:19;-0.20;99.90
983;DHT22;480;48.124;11.578;2022-12-11T09:38:46;-0.10;99.90
983;DHT22;480;48.124;11.578;2022-12-11T09:41:31;-0.20;99.90
983;DHT22;480;48.124;11.578;2022-12-11T09:44:11;-0.20;99.90
983;DHT22;480;48.124;11.578;2022-12-11T09:46:41;-0.10;99.90
983;DHT22;480;48.124;11.578;2022-12-11T09:49:18;-0.20;99.90
983;DHT22;480;48.124;11.578;2022-12-11T09:51:52;-0.30;99.90
983;DHT22;480;48.124;11.578;2022-12-11T09:54:23;-0.30;99.90
983;DHT22;480;48.124;11.578;2022-12-11T09:56:56;-0.40;99.90
983;DHT22;480;48.124;11.578;2022-12-11T09:59:35;-0.40;99.90
983;DHT22;480;48.124;11.578;2022-12-11T10:02:21;-0.40;99.90
983;DHT22;480;48.124;11.578;2022-12-11T10:04:57;-0.40;99.90
983;DHT22;480;48.124;11.578;2022-12-11T10:07:35;-0.30;99.90
983;DHT22;480;48.124;11.578;2022-12-11T10:10:15;-0.40;99.90
983;DHT22;480;48.124;11.578;2022-12-11T10:12:51;-0.40;99.90
983;DHT22;480;48.124;11.578;2022-12-11T10:15:32;-0.40;99.90
983;DHT22;480;48.124;11.578;2022-12-11T10:18:01;-0.40;99.90
983;DHT22;480;48.124;11.578;2022-12-11T10:20:31;-0.30;99.90
983;DHT22;480;48.124;11.578;2022-12-11T10:23:02;-0.30;99.90
983;DHT22;480;48.124;11.578;2022-12-11T10:25:32;-0.20;99.90
983;DHT22;480;48.124;11.578;2022-12-11T10:28:01;-0.10;99.90
983;DHT22;480;48.124;11.578;2022-12-11T10:30:38;0.10;99.90
983;DHT22;480;48.124;11.578;2022-12-11T10:33:13;0.00;99.90
983;DHT22;480;48.124;11.578;2022-12-11T10:35:45;-0.10;99.90
983;DHT22;480;48.124;11.578;2022-12-11T10:38:15;-0.10;99.90
983;DHT22;480;48.124;11.578;2022-12-11T10:40:45;-0.10;99.90
983;DHT22;480;48.124;11.578;2022-12-11T10:43:13;-0.10;99.90
983;DHT22;480;48.124;11.578;2022-12-11T10:45:49;0.00;99.90
983;DHT22;480;48.124;11.578;2022-12-11T10:48:17;0.00;99.90
983;DHT22;480;48.124;11.578;2022-12-11T10:50:54;-0.10;99.90
983;DHT22;480;48.124;11.578;2022-12-11T10:53:23;-0.20;99.90
983;DHT22;480;48.124;11.578;2022-12-11T10:55:50;-0.10;99.90
983;DHT22;480;48.124;11.578;2022-12-11T10:58:20;0.00;99.90
983;DHT22;480;48.124;11.578;2022-12-11T11:01:04;0.00;99.90
983;DHT22;480;48.124;11.578;2022-12-11T11:03:33;-0.10;99.90
983;DHT22;480;48.124;11.578;2022-12-11T11:06:03;-0.10;99.90
983;DHT22;480;48.124;11.578;2022-12-11T11:08:38;-0.10;99.90
983;DHT22;480;48.124;11.578;2022-12-11T11:11:12;0.00;99.90
983;DHT22;480;48.124;11.578;2022-12-11T11:13:45;0.00;99.90
983;DHT22;480;48.124;11.578;2022-12-11T11:16:16;-0.10;99.90
983;DHT22;480;48.124;11.578;2022-12-11T11:18:50;0.00;99.90
983;DHT22;480;48.124;11.578;2022-12-11T11:21:19;0.10;99.90
983;DHT22;480;48.124;11.578;2022-12-11T11:23:46;0.10;99.90
983;DHT22;480;48.124;11.578;2022-12-11T11:26:13;0.20;99.90
983;DHT22;480;48.124;11.578;2022-12-11T11:28:45;0.10;99.90
983;DHT22;480;48.124;11.578;2022-12-11T11:31:15;0.10;99.90
983;DHT22;480;48.124;11.578;2022-12-11T11:33:49;0.30;99.90
983;DHT22;480;48.124;11.578;2022-12-11T11:36:21;0.50;99.90
983;DHT22;480;48.124;11.578;2022-12-11T11:39:11;0.30;99.90
983;DHT22;480;48.124;11.578;2022-12-11T11:41:47;0.30;99.90
983;DHT22;480;48.124;11.578;2022-12-11T11:44:18;0.40;99.90
983;DHT22;480;48.124;11.578;2022-12-11T11:46:54;0.50;99.90
983;DHT22;480;48.124;11.578;2022-12-11T11:49:27;0.50;99.90
983;DHT22;480;48.124;11.578;2022-12-11T11:52:07;0.20;99.90
983;DHT22;480;48.124;11.578;2022-12-11T11:54:42;-0.20;99.90
983;DHT22;480;48.124;11.578;2022-12-11T11:57:16;-0.10;99.90
983;DHT22;480;48.124;11.578;2022-12-11T11:59:48;-0.20;99.90
983;DHT22;480;48.124;11.578;2022-12-11T12:02:19;-0.30;99.90
983;DHT22;480;48.124;11.578;2022-12-11T12:04:47;-0.40;99.90
983;DHT22;480;48.124;11.578;2022-12-11T12:07:29;-0.50;99.90
983;DHT22;480;48.124;11.578;2022-12-11T12:10:02;-0.40;99.90
983;DHT22;480;48.124;11.578;2022-12-11T12:12:42;-0.50;99.90
983;DHT22;480;48.124;11.578;2022-12-11T12:15:26;-0.50;99.90
983;DHT22;480;48.124;11.578;2022-12-11T12:17:59;-0.50;99.90
983;DHT22;480;48.124;11.578;2022-12-11T12:20:37;-0.50;99.90
983;DHT22;480;48.124;11.578;2022-12-11T12:23:21;-0.40;99.90
983;DHT22;480;48.124;11.578;2022-12-11T12:25:55;-0.20;99.90
983;DHT22;480;48.124;11.578;2022-12-11T12:28:31;-0.20;99.90
983;DHT22;480;48.124;11.578;2022-12-11T12:31:12;-0.10;99.90
983;DHT22;480;48.124;11.578;2022-12-11T12:33:51;-0.20;99.90
983;DHT22;480;48.124;11.578;2022-12-11T12:36:25;-0.30;99.90
983;DHT22;480;48.124;11.578;2022-12-11T12:38:56;-0.20;99.90
983;DHT22;480;48.124;11.578;2022-12-11T12:41:34;-0.10;99.90
983;DHT22;480;48.124;11.578;2022-12-11T12:44:13;-0.10;99.90
983;DHT22;480;48.124;11.578;2022-12-11T12:46:50;0.10;99.90
983;DHT22;480;48.124;11.578;2022-12-11T12:49:35;0.20;99.90
983;DHT22;480;48.124;11.578;2022-12-11T12:52:04;0.50;99.90
983;DHT22;480;48.124;11.578;2022-12-11T12:54:32;0.60;99.90
983;DHT22;480;48.124;11.578;2022-12-11T12:57:02;0.60;99.90
983;DHT22;480;48.124;11.578;2022-12-11T12:59:29;0.50;99.90
983;DHT22;480;48.124;11.578;2022-12-11T13:01:59;0.50;99.90
983;DHT22;480;48.124;11.578;2022-12-11T13:04:34;0.50;99.90
983;DHT22;480;48.124;11.578;2022-12-11T13:07:11;0.50;99.90
983;DHT22;480;48.124;11.578;2022-12-11T13:09:39;0.40;99.90
983;DHT22;480;48.124;11.578;2022-12-11T13:12:12;0.40;99.90
983;DHT22;480;48.124;11.578;2022-12-11T13:14:40;0.40;99.90
983;DHT22;480;48.124;11.578;2022-12-11T13:17:24;0.40;99.90
983;DHT22;480;48.124;11.578;2022-12-11T13:20:10;0.50;99.90
983;DHT22;480;48.124;11.578;2022-12-11T13:22:47;0.60;99.90
983;DHT22;480;48.124;11.578;2022-12-11T13:25:22;0.40;99.90
983;DHT22;480;48.124;11.578;2022-12-11T13:27:50;0.40;99.90
983;DHT22;480;48.124;11.578;2022-12-11T13:30:23;0.30;99.90
983;DHT22;480;48.124;11.578;2022-12-11T13:33:01;0.20;99.90
983;DHT22;480;48.124;11.578;2022-12-11T13:35:32;0.10;99.90
983;DHT22;480;48.124;11.578;2022-12-11T13:38:03;0.00;99.90
983;DHT22;480;48.124;11.578;2022-12-11T13:40:38;-0.10;99.90
983;DHT22;480;48.124;11.578;2022-12-11T13:43:08;0.00;99.90
983;DHT22;480;48.124;11.578;2022-12-11T13:45:45;0.00;99.90
983;DHT22;480;48.124;11.578;2022-12-11T13:48:20;0.00;99.90
983;DHT22;480;48.124;11.578;2022-12-11T13:50:51;-0.10;99.90
983;DHT22;480;48.124;11.578;2022-12-11T13:53:20;-0.20;99.90
983;DHT22;480;48.124;11.578;2022-12-11T13:55:55;-0.20;99.90
983;DHT22;480;48.124;11.578;2022-12-11T13:58:23;-0.20;99.90
983;DHT22;480;48.124;11.578;2022-12-11T14:01:03;-0.10;99.90
983;DHT22;480;48.124;11.578;2022-12-11T14:03:32;-0.10;99.90
983;DHT22;480;48.124;11.578;2022-12-11T14:06:01;-0.10;99.90
983;DHT22;480;48.124;11.578;2022-12-11T14:08:33;0.00;99.90
983;DHT22;480;48.124;11.578;2022-12-11T14:11:02;0.00;99.90
983;DHT22;480;48.124;11.578;2022-12-11T14:14:00;-0.30;99.90
983;DHT22;480;48.124;11.578;2022-12-11T14:16:28;-0.20;99.90
983;DHT22;480;48.124;11.578;2022-12-11T14:19:00;-0.20;99.90
983;DHT22;480;48.124;11.578;2022-12-11T14:21:28;-0.10;99.90
983;DHT22;480;48.124;11.578;2022-12-11T14:23:56;-0.10;99.90
983;DHT22;480;48.124;11.578;2022-12-11T14:26:25;-0.20;99.90
983;DHT22;480;48.124;11.578;2022-12-11T14:28:53;-0.10;99.90
983;DHT22;480;48.124;11.578;2022-12-11T14:31:26;0.00;99.90
983;DHT22;480;48.124;11.578;2022-12-11T14:33:57;0.10;99.90
983;DHT22;480;48.124;11.578;2022-12-11T14:36:27;0.20;99.90
983;DHT22;480;48.124;11.578;2022-12-11T14:38:56;0.30;99.90
983;DHT22;480;48.124;11.578;2022-12-11T14:41:30;0.20;99.90
983;DHT22;480;48.124;11.578;2022-12-11T14:44:01;0.00;99.90
983;DHT22;480;48.124;11.578;2022-12-11T14:46:36;0.20;99.90
983;DHT22;480;48.124;11.578;2022-12-11T14:49:07;0.10;99.90
983;DHT22;480;48.124;11.578;2022-12-11T14:51:40;-0.10;99.90
983;DHT22;480;48.124;11.578;2022-12-11T14:54:14;-0.20;99.90
983;DHT22;480;48.124;11.578;2022-12-11T14:56:44;-0.40;99.90
983;DHT22;480;48.124;11.578;2022-12-11T14:59:18;-0.30;99.90
983;DHT22;480;48.124;11.578;2022-12-11T15:01:58;-0.30;99.90
983;DHT22;480;48.124;11.578;2022-12-11T15:04:28;-0.40;99.90
983;DHT22;480;48.124;11.578;2022-12-11T15:06:56;-0.40;99.90
983;DHT22;480;48.124;11.578;2022-12-11T15:09:26;-0.40;99.90
983;DHT22;480;48.124;11.578;2022-12-11T15:11:55;-0.50;99.90
983;DHT22;480;48.124;11.578;2022-12-11T15:14:24;-0.50;99.90
983;DHT22;480;48.124;11.578;2022-12-11T15:16:55;-0.50;99.90
983;DHT22;480;48.124;11.578;2022-12-11T15:19:28;-0.50;99.90
983;DHT22;480;48.124;11.578;2022-12-11T15:22:01;-0.50;99.90
983;DHT22;480;48.124;11.578;2022-12-11T15:24:33;-0.50;99.90
983;DHT22;480;48.124;11.578;2022-12-11T15:27:02;-0.50;99.90
983;DHT22;480;48.124;11.578;2022-12-11T15:29:34;-0.40;99.90
983;DHT22;480;48.124;11.578;2022-12-11T15:32:11;-0.30;99.90
983;DHT22;480;48.124;11.578;2022-12-11T15:34:46;-0.10;99.90
983;DHT22;480;48.124;11.578;2022-12-11T15:37:19;-0.10;99.90
983;DHT22;480;48.124;11.578;2022-12-11T15:39:46;-0.20;99.90
983;DHT22;480;48.124;11.578;2022-12-11T15:42:16;-0.40;99.90
983;DHT22;480;48.124;11.578;2022-12-11T15:44:44;-0.50;99.90
983;DHT22;480;48.124;11.578;2022-12-11T15:47:12;-0.40;99.90
983;DHT22;480;48.124;11.578;2022-12-11T15:49:40;-0.40;99.90
983;DHT22;480;48.124;11.578;2022-12-11T15:52:08;-0.40;99.90
983;DHT22;480;48.124;11.578;2022-12-11T15:54:35;-0.50;99.90
983;DHT22;480;48.124;11.578;2022-12-11T15:57:05;-0.60;99.90
983;DHT22;480;48.124;11.578;2022-12-11T15:59:34;-0.40;99.90
983;DHT22;480;48.124;11.578;2022-12-11T16:02:01;-0.30;99.90
983;DHT22;480;48.124;11.578;2022-12-11T16:04:27;-0.40;99.90
983;DHT22;480;48.124;11.578;2022-12-11T16:06:55;-0.40;99.90
983;DHT22;480;48.124;11.578;2022-12-11T16:09:23;-0.40;99.90
983;DHT22;480;48.124;11.578;2022-12-11T16:11:50;-0.20;99.90
983;DHT22;480;48.124;11.578;2022-12-11T16:14:17;-0.40;99.90
983;DHT22;480;48.124;11.578;2022-12-11T16:16:44;-0.40;99.90
983;DHT22;480;48.124;11.578;2022-12-11T16:19:11;-0.50;99.90
983;DHT22;480;48.124;11.578;2022-12-11T16:21:38;-0.50;99.90
983;DHT22;480;48.124;11.578;2022-12-11T16:24:05;-0.60;99.90
983;DHT22;480;48.124;11.578;2022-12-11T16:26:34;-0.60;99.90
983;DHT22;480;48.124;11.578;2022-12-11T16:29:01;-0.50;99.90
983;DHT22;480;48.124;11.578;2022-12-11T16:31:28;-0.60;99.90
983;DHT22;480;48.124;11.578;2022-12-11T16:33:55;-0.60;99.90
983;DHT22;480;48.124;11.578;2022-12-11T16:36:22;-0.50;99.90
983;DHT22;480;48.124;11.578;2022-12-11T16:38:49;-0.60;99.90
983;DHT22;480;48.124;11.578;2022-12-11T16:41:17;-0.70;99.90
983;DHT22;480;48.124;11.578;2022-12-11T16:43:46;-0.70;99.90